N281WB KDWH-KCLL
Flight info
| Callsign | N281WB |
|---|---|
| Flight time | 0h 32m |
| Altitude | VFR/040 |
| Route | |
| Aircraft | SR22/L-DOV/C |
Departure
| Time | 2026-04-25 22:00 |
|---|---|
| Airport | David Wayne Hooks Memorial Airport (KDWH) |
Arrival
| Time | 2026-04-25 22:33 |
|---|---|
| Airport | Easterwood Field (KCLL) |
| Time | Latitude | Longitude | Altitude | Speed | Heading |
|---|---|---|---|---|---|
| 2026-04-25 21:55 | 30.07014 | -95.55296 | 157 ft | 0 kts | 179° |
| 2026-04-25 21:57 | 30.06994 | -95.55302 | 157 ft | 10 kts | 226° |
| 2026-04-25 21:58 | 30.06991 | -95.55349 | 157 ft | 0 kts | 269° |
| 2026-04-25 21:58 | 30.06990 | -95.55355 | 157 ft | 0 kts | 268° |
| 2026-04-25 21:59 | 30.06990 | -95.55391 | 157 ft | 14 kts | 270° |
| 2026-04-25 21:59 | 30.06844 | -95.55409 | 155 ft | 50 kts | 173° |
| 2026-04-25 22:00 | 30.05706 | -95.55238 | 471 ft | 94 kts | 169° |
| 2026-04-25 22:00 | 30.05047 | -95.55144 | 656 ft | 99 kts | 174° |
| 2026-04-25 22:00 | 30.04353 | -95.55340 | 819 ft | 114 kts | 209° |
| 2026-04-25 22:00 | 30.03668 | -95.55855 | 1031 ft | 123 kts | 212° |
| 2026-04-25 22:01 | 30.03022 | -95.56540 | 1222 ft | 129 kts | 217° |
| 2026-04-25 22:01 | 30.02347 | -95.57232 | 1404 ft | 132 kts | 217° |
| 2026-04-25 22:01 | 30.01671 | -95.58016 | 1491 ft | 149 kts | 233° |
| 2026-04-25 22:01 | 30.01489 | -95.58824 | 1481 ft | 162 kts | 266° |
| 2026-04-25 22:02 | 30.02227 | -95.60360 | 1566 ft | 172 kts | 311° |
| 2026-04-25 22:02 | 30.03075 | -95.61317 | 1717 ft | 169 kts | 312° |
| 2026-04-25 22:02 | 30.03889 | -95.62282 | 1890 ft | 165 kts | 308° |
| 2026-04-25 22:02 | 30.04640 | -95.63268 | 2141 ft | 163 kts | 306° |
| 2026-04-25 22:03 | 30.05378 | -95.64253 | 2369 ft | 160 kts | 306° |
| 2026-04-25 22:03 | 30.06098 | -95.65213 | 2679 ft | 156 kts | 307° |
| 2026-04-25 22:03 | 30.06799 | -95.66149 | 2982 ft | 152 kts | 307° |
| 2026-04-25 22:03 | 30.07484 | -95.67064 | 3286 ft | 150 kts | 306° |
| 2026-04-25 22:04 | 30.08158 | -95.67970 | 3586 ft | 148 kts | 306° |
| 2026-04-25 22:04 | 30.08825 | -95.68866 | 3886 ft | 147 kts | 306° |
| 2026-04-25 22:04 | 30.09532 | -95.69815 | 3937 ft | 164 kts | 305° |
| 2026-04-25 22:04 | 30.10306 | -95.70842 | 3934 ft | 174 kts | 307° |
| 2026-04-25 22:05 | 30.11110 | -95.71910 | 3950 ft | 182 kts | 306° |
| 2026-04-25 22:05 | 30.11947 | -95.73026 | 3932 ft | 185 kts | 307° |
| 2026-04-25 22:05 | 30.12790 | -95.74156 | 3931 ft | 186 kts | 308° |
| 2026-04-25 22:05 | 30.13636 | -95.75286 | 3931 ft | 185 kts | 307° |
| 2026-04-25 22:06 | 30.14474 | -95.76413 | 3928 ft | 185 kts | 307° |
| 2026-04-25 22:06 | 30.15319 | -95.77541 | 3927 ft | 185 kts | 306° |
| 2026-04-25 22:06 | 30.16161 | -95.78672 | 3856 ft | 185 kts | 307° |
| 2026-04-25 22:06 | 30.17003 | -95.79805 | 3858 ft | 186 kts | 306° |
| 2026-04-25 22:07 | 30.17846 | -95.80933 | 3856 ft | 185 kts | 307° |
| 2026-04-25 22:07 | 30.18406 | -95.81681 | 3859 ft | 185 kts | 307° |
| 2026-04-25 22:07 | 30.19520 | -95.83175 | 3857 ft | 185 kts | 306° |
| 2026-04-25 22:07 | 30.20365 | -95.84308 | 3855 ft | 186 kts | 306° |
| 2026-04-25 22:08 | 30.21209 | -95.85446 | 3857 ft | 186 kts | 307° |
| 2026-04-25 22:08 | 30.22057 | -95.86588 | 3853 ft | 187 kts | 307° |
| 2026-04-25 22:08 | 30.22906 | -95.87728 | 3860 ft | 187 kts | 307° |
| 2026-04-25 22:08 | 30.23753 | -95.88863 | 3855 ft | 185 kts | 307° |
| 2026-04-25 22:09 | 30.24584 | -95.89970 | 3859 ft | 185 kts | 311° |
| 2026-04-25 22:09 | 30.25694 | -95.90743 | 3841 ft | 190 kts | 336° |
| 2026-04-25 22:09 | 30.26929 | -95.91293 | 3837 ft | 190 kts | 335° |
| 2026-04-25 22:09 | 30.28142 | -95.91913 | 3836 ft | 191 kts | 332° |
| 2026-04-25 22:10 | 30.29346 | -95.92570 | 3840 ft | 192 kts | 333° |
| 2026-04-25 22:10 | 30.30553 | -95.93222 | 3842 ft | 191 kts | 332° |
| 2026-04-25 22:10 | 30.31752 | -95.93867 | 3782 ft | 190 kts | 333° |
| 2026-04-25 22:10 | 30.32956 | -95.94517 | 3780 ft | 190 kts | 333° |
| 2026-04-25 22:11 | 30.34153 | -95.95155 | 3780 ft | 189 kts | 333° |
| 2026-04-25 22:11 | 30.35348 | -95.95802 | 3782 ft | 190 kts | 332° |
| 2026-04-25 22:11 | 30.36549 | -95.96450 | 3781 ft | 190 kts | 332° |
| 2026-04-25 22:11 | 30.37752 | -95.97099 | 3829 ft | 191 kts | 333° |
| 2026-04-25 22:12 | 30.38955 | -95.97745 | 3834 ft | 190 kts | 333° |
| 2026-04-25 22:12 | 30.40143 | -95.98383 | 3829 ft | 190 kts | 333° |
| 2026-04-25 22:12 | 30.41341 | -95.99028 | 3831 ft | 190 kts | 332° |
| 2026-04-25 22:12 | 30.42148 | -95.99465 | 3833 ft | 190 kts | 332° |
| 2026-04-25 22:13 | 30.43732 | -96.00319 | 3842 ft | 189 kts | 332° |
| 2026-04-25 22:13 | 30.44924 | -96.00962 | 3848 ft | 189 kts | 332° |
| 2026-04-25 22:13 | 30.46121 | -96.01611 | 3854 ft | 191 kts | 332° |
| 2026-04-25 22:13 | 30.47327 | -96.02258 | 3858 ft | 191 kts | 332° |
| 2026-04-25 22:14 | 30.48531 | -96.02910 | 3866 ft | 191 kts | 332° |
| 2026-04-25 22:14 | 30.49739 | -96.03562 | 3947 ft | 190 kts | 332° |
| 2026-04-25 22:14 | 30.50941 | -96.04211 | 3959 ft | 191 kts | 332° |
| 2026-04-25 22:14 | 30.52145 | -96.04860 | 3955 ft | 190 kts | 332° |
| 2026-04-25 22:15 | 30.53342 | -96.05508 | 3957 ft | 189 kts | 333° |
| 2026-04-25 22:15 | 30.54531 | -96.06151 | 3960 ft | 188 kts | 332° |
| 2026-04-25 22:15 | 30.55720 | -96.06796 | 3963 ft | 189 kts | 333° |
| 2026-04-25 22:16 | 30.58093 | -96.08079 | 3971 ft | 189 kts | 333° |
| 2026-04-25 22:16 | 30.59283 | -96.08722 | 4126 ft | 189 kts | 333° |
| 2026-04-25 22:16 | 30.60455 | -96.09360 | 4016 ft | 186 kts | 333° |
| 2026-04-25 22:16 | 30.61638 | -96.09999 | 4026 ft | 188 kts | 334° |
| 2026-04-25 22:17 | 30.62824 | -96.10641 | 4025 ft | 188 kts | 333° |
| 2026-04-25 22:17 | 30.64012 | -96.11284 | 4025 ft | 188 kts | 333° |
| 2026-04-25 22:17 | 30.65201 | -96.11929 | 4024 ft | 189 kts | 333° |
| 2026-04-25 22:17 | 30.66397 | -96.12576 | 4025 ft | 190 kts | 333° |
| 2026-04-25 22:18 | 30.67596 | -96.13226 | 4024 ft | 190 kts | 333° |
| 2026-04-25 22:18 | 30.68791 | -96.13875 | 4027 ft | 190 kts | 333° |
| 2026-04-25 22:18 | 30.69973 | -96.14516 | 4027 ft | 190 kts | 334° |
| 2026-04-25 22:18 | 30.71173 | -96.15168 | 4029 ft | 191 kts | 333° |
| 2026-04-25 22:19 | 30.72380 | -96.15823 | 4032 ft | 191 kts | 333° |
| 2026-04-25 22:19 | 30.73585 | -96.16477 | 4033 ft | 191 kts | 333° |
| 2026-04-25 22:19 | 30.74790 | -96.17131 | 4033 ft | 190 kts | 333° |
| 2026-04-25 22:19 | 30.75987 | -96.17782 | 4033 ft | 190 kts | 333° |
| 2026-04-25 22:20 | 30.77181 | -96.18430 | 4033 ft | 189 kts | 333° |
| 2026-04-25 22:20 | 30.78375 | -96.19079 | 4030 ft | 189 kts | 333° |
| 2026-04-25 22:20 | 30.79568 | -96.19730 | 4030 ft | 190 kts | 334° |
| 2026-04-25 22:20 | 30.80764 | -96.20380 | 4035 ft | 190 kts | 334° |
| 2026-04-25 22:21 | 30.81885 | -96.21208 | 3865 ft | 195 kts | 311° |
| 2026-04-25 22:21 | 30.82627 | -96.22521 | 3627 ft | 194 kts | 288° |
| 2026-04-25 22:21 | 30.82859 | -96.24030 | 3387 ft | 188 kts | 264° |
| 2026-04-25 22:21 | 30.82650 | -96.25509 | 3151 ft | 185 kts | 253° |
| 2026-04-25 22:22 | 30.82399 | -96.26961 | 2916 ft | 186 kts | 255° |
| 2026-04-25 22:22 | 30.82154 | -96.28444 | 2674 ft | 186 kts | 255° |
| 2026-04-25 22:22 | 30.81906 | -96.29917 | 2428 ft | 185 kts | 256° |
| 2026-04-25 22:22 | 30.81640 | -96.31390 | 2101 ft | 189 kts | 252° |
| 2026-04-25 22:23 | 30.81253 | -96.32820 | 1894 ft | 183 kts | 245° |
| 2026-04-25 22:23 | 30.80629 | -96.34109 | 1637 ft | 181 kts | 230° |
| 2026-04-25 22:23 | 30.79677 | -96.35022 | 1154 ft | 183 kts | 199° |
| 2026-04-25 22:23 | 30.78488 | -96.35063 | 1000 ft | 154 kts | 171° |
| 2026-04-25 22:24 | 30.77558 | -96.35172 | 1105 ft | 129 kts | 211° |
| 2026-04-25 22:24 | 30.77301 | -96.35997 | 1404 ft | 107 kts | 285° |
| 2026-04-25 22:24 | 30.77708 | -96.36691 | 1517 ft | 99 kts | 297° |
| 2026-04-25 22:24 | 30.78066 | -96.37357 | 1615 ft | 100 kts | 295° |
| 2026-04-25 22:25 | 30.78433 | -96.38033 | 2034 ft | 98 kts | 296° |
| 2026-04-25 22:25 | 30.78656 | -96.38853 | 2145 ft | 121 kts | 250° |
| 2026-04-25 22:25 | 30.78100 | -96.39624 | 2163 ft | 134 kts | 206° |
| 2026-04-25 22:25 | 30.77203 | -96.39708 | 2138 ft | 130 kts | 170° |
| 2026-04-25 22:26 | 30.76337 | -96.39523 | 2131 ft | 125 kts | 173° |
| 2026-04-25 22:26 | 30.75473 | -96.39380 | 2125 ft | 125 kts | 172° |
| 2026-04-25 22:26 | 30.74621 | -96.39242 | 2122 ft | 123 kts | 174° |
| 2026-04-25 22:26 | 30.73792 | -96.39111 | 2119 ft | 122 kts | 172° |
| 2026-04-25 22:27 | 30.72955 | -96.38981 | 2119 ft | 120 kts | 174° |
| 2026-04-25 22:27 | 30.72141 | -96.38858 | 2120 ft | 116 kts | 173° |
| 2026-04-25 22:27 | 30.71362 | -96.38739 | 2105 ft | 109 kts | 175° |
| 2026-04-25 22:27 | 30.70639 | -96.38624 | 2110 ft | 103 kts | 175° |
| 2026-04-25 22:28 | 30.69933 | -96.38517 | 2108 ft | 101 kts | 173° |
| 2026-04-25 22:28 | 30.69255 | -96.38412 | 2110 ft | 96 kts | 174° |
| 2026-04-25 22:28 | 30.68625 | -96.38317 | 2106 ft | 85 kts | 173° |
| 2026-04-25 22:28 | 30.68079 | -96.38192 | 2095 ft | 75 kts | 171° |
| 2026-04-25 22:29 | 30.67540 | -96.38072 | 1965 ft | 80 kts | 170° |
| 2026-04-25 22:29 | 30.67002 | -96.37948 | 1840 ft | 78 kts | 171° |
| 2026-04-25 22:29 | 30.66464 | -96.37828 | 1722 ft | 79 kts | 171° |
| 2026-04-25 22:30 | 30.65269 | -96.37559 | 1443 ft | 91 kts | 167° |
| 2026-04-25 22:30 | 30.64654 | -96.37420 | 1314 ft | 90 kts | 170° |
| 2026-04-25 22:30 | 30.64023 | -96.37277 | 1161 ft | 94 kts | 168° |
| 2026-04-25 22:30 | 30.63596 | -96.37181 | 1066 ft | 94 kts | 168° |
| 2026-04-25 22:31 | 30.62731 | -96.36985 | 874 ft | 98 kts | 169° |
| 2026-04-25 22:31 | 30.62104 | -96.36813 | 882 ft | 83 kts | 169° |
| 2026-04-25 22:31 | 30.61520 | -96.36700 | 743 ft | 87 kts | 170° |
| 2026-04-25 22:31 | 30.60916 | -96.36561 | 631 ft | 87 kts | 172° |
| 2026-04-25 22:32 | 30.60317 | -96.36438 | 514 ft | 86 kts | 168° |
| 2026-04-25 22:32 | 30.59721 | -96.36297 | 368 ft | 89 kts | 168° |
| 2026-04-25 22:32 | 30.59157 | -96.36166 | 325 ft | 74 kts | 167° |
| 2026-04-25 22:32 | 30.58696 | -96.36060 | 318 ft | 61 kts | 166° |
| 2026-04-25 22:33 | 30.58386 | -96.35993 | 315 ft | 39 kts | 169° |
| 2026-04-25 22:33 | 30.58296 | -96.35887 | 315 ft | 21 kts | 66° |
| 2026-04-25 22:33 | 30.58476 | -96.35902 | 315 ft | 41 kts | 349° |
| 2026-04-25 22:33 | 30.58727 | -96.35925 | 315 ft | 37 kts | 8° |
| 2026-04-25 22:34 | 30.58972 | -96.35946 | 317 ft | 21 kts | 311° |
| 2026-04-25 22:34 | 30.59018 | -96.35961 | 318 ft | 18 kts | 39° |
| 2026-04-25 22:34 | 30.58998 | -96.35949 | 317 ft | 0 kts | 230° |